Terminal Aerodrome Forecast
Issued by NWS Sterling, VA

Home | Current Version | Previous Version | Text Only | Print | Product List | Glossary On
Versions: 1 2 3 4 5 6 7 8 9 10 11 12 13 14 15 16 17 18 19 20 21 22 23 24 25
000
FTUS41 KLWX 212340
TAFIAD
TAF
KIAD 212340Z 2200/2306 18012KT P6SM SCT160
     FM220300 20010KT P6SM BKN100
     FM220900 25005KT P6SM BKN025
     FM221000 27005KT P6SM BKN035
     FM221300 32010KT P6SM SCT090
     FM221500 32017G30KT P6SM SKC
     FM222300 33009KT P6SM SKC
     FM230500 33005KT P6SM SKC=

USA.gov is the U.S. government's official web portal to all federal, state and local government web resources and services.